Terminal Aerodrome Forecast
Issued by NWS Sterling, VA

Current Version | Previous Version | Graphics & Text | Print | Product List | Glossary On
Versions: 1 2 3 4 5 6 7 8 9 10 11 12 13 14 15 16 17 18 19 20 21 22 23 24
000
FTUS41 KLWX 260540
TAFDCA
TAF
KDCA 260540Z 2606/2706 VRB03KT P6SM BKN040 WS020/21030KT
     FM261000 19004KT 5SM BR BKN040 WS020/22035KT
     FM261300 21005KT 3SM BR OVC025
     FM261600 21009G25KT P6SM BKN025
     FM262000 20015G24KT P6SM BKN070
     FM262300 22010KT P6SM SHRA BKN090
     FM270300 31016G26KT P6SM -SHRA OVC015=

USA.gov is the U.S. government's official web portal to all federal, state and local government web resources and services.